createdAt,value
2019-01-04T00:00:51.894Z,12.37
2019-01-04T00:03:22.746Z,11.23
2019-01-04T00:05:53.059Z,11.67
2019-01-04T00:08:27.142Z,11.83
2019-01-04T00:10:57.894Z,13.43
2019-01-04T00:13:28.245Z,15.70
2019-01-04T00:15:58.817Z,15.87
2019-01-04T00:18:30.791Z,12.73
2019-01-04T00:21:03.975Z,17.30
2019-01-04T00:23:34.410Z,13.97
2019-01-04T00:26:05.309Z,18.43
2019-01-04T00:28:41.329Z,16.60
2019-01-04T00:31:11.908Z,14.80
2019-01-04T00:33:43.949Z,12.90
2019-01-04T00:36:14.813Z,12.93
2019-01-04T00:38:47.634Z,10.40
2019-01-04T00:41:17.761Z,12.40
2019-01-04T00:43:48.703Z,12.80
2019-01-04T00:46:19.246Z,16.97
2019-01-04T00:48:49.734Z,9.60
2019-01-04T00:51:26.760Z,9.40
2019-01-04T00:53:57.273Z,18.60
2019-01-04T00:57:09.098Z,13.50
2019-01-04T01:00:16.340Z,10.83
2019-01-04T01:03:29.851Z,13.23
2019-01-04T01:06:38.758Z,16.47
2019-01-04T01:09:52.246Z,12.77
2019-01-04T01:13:12.320Z,9.33
2019-01-04T01:16:34.905Z,11.40
2019-01-04T01:20:00.339Z,11.57
2019-01-04T01:23:17.301Z,11.03
2019-01-04T01:26:39.505Z,11.50
2019-01-04T01:29:55.174Z,13.70
2019-01-04T01:33:41.697Z,14.37
2019-01-04T01:36:39.010Z,11.13
2019-01-04T01:39:40.163Z,14.00
2019-01-04T01:43:04.694Z,9.77
2019-01-04T01:46:19.478Z,17.30
2019-01-04T01:49:31.707Z,15.93
2019-01-04T01:52:11.569Z,13.30
2019-01-04T01:54:41.938Z,14.10
2019-01-04T01:57:15.389Z,10.77
2019-01-04T01:59:46.188Z,10.87
2019-01-04T02:02:17.499Z,9.70
2019-01-04T02:04:47.820Z,15.07
2019-01-04T02:07:21.485Z,13.93
2019-01-04T02:09:54.464Z,14.07
2019-01-04T02:12:27.309Z,14.20
2019-01-04T02:15:00.898Z,15.50
2019-01-04T02:17:31.898Z,17.77
2019-01-04T02:20:02.615Z,12.03
2019-01-04T02:22:36.100Z,17.17
2019-01-04T02:25:06.835Z,13.53
2019-01-04T02:27:38.726Z,13.20
2019-01-04T02:30:10.625Z,9.90
2019-01-04T02:32:41.116Z,10.87
2019-01-04T02:35:15.384Z,9.87
2019-01-04T02:37:48.765Z,13.50
2019-01-04T02:40:19.213Z,11.47
2019-01-04T02:42:50.087Z,13.83
2019-01-04T02:45:20.661Z,15.10
2019-01-04T02:47:51.251Z,14.17
2019-01-04T02:50:21.616Z,14.33
2019-01-04T02:52:53.765Z,13.80
2019-01-04T02:55:24.849Z,16.00
2019-01-04T02:57:55.023Z,15.03
2019-01-04T03:00:25.446Z,13.83
2019-01-04T03:02:56.458Z,14.67
2019-01-04T03:05:26.871Z,15.63
2019-01-04T03:07:57.155Z,15.10
2019-01-04T03:10:27.657Z,14.23
2019-01-04T03:12:58.409Z,13.97
2019-01-04T03:15:28.913Z,16.13
2019-01-04T03:17:59.382Z,15.40
2019-01-04T03:20:30.002Z,16.93
2019-01-04T03:23:00.306Z,17.90
2019-01-04T03:25:30.745Z,17.53
2019-01-04T03:28:01.489Z,22.60
2019-01-04T03:30:31.927Z,14.70
2019-01-04T03:33:02.890Z,16.00
2019-01-04T03:35:33.263Z,14.30
2019-01-04T03:38:03.989Z,13.07
2019-01-04T03:40:34.843Z,12.50
2019-01-04T03:43:05.195Z,16.00
2019-01-04T03:45:35.819Z,16.93
2019-01-04T03:48:06.816Z,17.77
2019-01-04T03:50:37.294Z,15.90
2019-01-04T03:53:07.895Z,20.60
2019-01-04T03:55:38.732Z,19.43
2019-01-04T03:58:09.003Z,14.13
2019-01-04T04:00:39.896Z,19.50
2019-01-04T04:03:10.303Z,15.73
2019-01-04T04:05:40.691Z,17.70
2019-01-04T04:08:10.943Z,15.33
2019-01-04T04:10:41.954Z,17.03
2019-01-04T04:13:12.294Z,16.50
2019-01-04T04:15:42.945Z,15.80
2019-01-04T04:18:13.608Z,16.50
2019-01-04T04:20:44.304Z,18.77
2019-01-04T04:23:14.760Z,17.90
2019-01-04T04:25:45.326Z,21.83
2019-01-04T04:28:16.117Z,16.80
2019-01-04T04:30:46.426Z,15.63
2019-01-04T04:33:16.829Z,17.27
2019-01-04T04:35:47.306Z,23.30
2019-01-04T04:38:18.001Z,15.43
2019-01-04T04:40:48.842Z,14.47
2019-01-04T04:43:19.157Z,17.17
2019-01-04T04:45:49.518Z,15.87
2019-01-04T04:48:19.898Z,19.83
2019-01-04T04:50:50.221Z,15.53
2019-01-04T04:53:22.915Z,18.73
2019-01-04T04:55:53.591Z,20.47
2019-01-04T04:58:23.873Z,17.00
2019-01-04T05:00:57.715Z,19.43
2019-01-04T05:03:27.955Z,22.83
2019-01-04T05:05:58.324Z,18.17
2019-01-04T05:08:29.079Z,15.17
2019-01-04T05:10:59.287Z,15.63
2019-01-04T05:13:29.685Z,17.73
2019-01-04T05:16:00.560Z,18.00
2019-01-04T05:18:31.015Z,18.97
2019-01-04T05:21:01.506Z,16.97
2019-01-04T05:23:32.468Z,17.60
2019-01-04T05:26:02.808Z,16.40
2019-01-04T05:28:33.627Z,24.47
2019-01-04T05:31:04.489Z,15.47
2019-01-04T05:33:34.832Z,14.40
2019-01-04T05:36:05.233Z,21.90
2019-01-04T05:38:36.504Z,14.40
2019-01-04T05:41:07.223Z,14.00
2019-01-04T05:43:37.738Z,12.47
2019-01-04T05:46:08.863Z,20.00
2019-01-04T05:48:39.415Z,12.47
2019-01-04T05:51:09.723Z,12.43
2019-01-04T05:53:40.310Z,11.50
2019-01-04T05:56:11.050Z,16.10
2019-01-04T05:58:41.406Z,12.93
2019-01-04T06:01:12.175Z,14.40
2019-01-04T06:03:45.130Z,12.13
2019-01-04T06:06:15.778Z,12.50
2019-01-04T06:08:46.513Z,14.53
2019-01-04T06:11:18.366Z,11.80
2019-01-04T06:13:49.173Z,13.97
2019-01-04T06:16:19.514Z,17.17
2019-01-04T06:18:49.725Z,14.97
2019-01-04T06:21:20.194Z,9.00
2019-01-04T06:23:55.001Z,13.10
2019-01-04T06:26:25.658Z,12.27
2019-01-04T06:28:55.901Z,15.60
2019-01-04T06:31:27.152Z,16.53
2019-01-04T06:33:57.865Z,15.57
2019-01-04T06:36:28.317Z,16.63
2019-01-04T06:39:00.248Z,15.30
2019-01-04T06:41:30.854Z,18.03
2019-01-04T06:44:04.909Z,16.23
2019-01-04T06:46:37.474Z,14.33
2019-01-04T06:49:08.085Z,15.10
2019-01-04T06:51:40.159Z,16.93
2019-01-04T06:54:46.810Z,19.27
2019-01-04T06:57:17.478Z,20.13
2019-01-04T06:59:49.385Z,17.27
2019-01-04T07:02:19.605Z,17.07
2019-01-04T07:04:50.249Z,16.00
2019-01-04T07:07:20.776Z,18.10
2019-01-04T07:09:54.328Z,14.93
2019-01-04T07:12:27.644Z,14.33
2019-01-04T07:15:00.395Z,15.43
2019-01-04T07:17:31.033Z,16.40
2019-01-04T07:20:01.621Z,12.87
2019-01-04T07:22:32.126Z,12.90
2019-01-04T07:25:02.958Z,11.50
2019-01-04T07:27:33.515Z,11.53
2019-01-04T07:30:03.874Z,12.17
2019-01-04T07:32:36.459Z,14.67
2019-01-04T07:35:09.460Z,12.93
2019-01-04T07:37:39.675Z,12.87
2019-01-04T07:40:13.178Z,13.97
2019-01-04T07:42:43.525Z,14.67
2019-01-04T07:45:15.326Z,15.50
2019-01-04T07:47:45.834Z,13.50
2019-01-04T07:50:16.455Z,18.17
2019-01-04T07:52:46.886Z,13.60
2019-01-04T07:55:18.534Z,16.40
2019-01-04T07:57:49.207Z,14.97
2019-01-04T08:00:19.706Z,13.90
2019-01-04T08:02:54.846Z,13.40
2019-01-04T08:05:29.274Z,12.80
2019-01-04T08:08:02.546Z,14.23
2019-01-04T08:10:38.842Z,14.80
2019-01-04T08:13:10.730Z,13.00
2019-01-04T08:15:43.822Z,13.23
2019-01-04T08:18:16.557Z,12.93
2019-01-04T08:20:48.621Z,10.90
2019-01-04T08:23:20.710Z,8.43
2019-01-04T08:25:58.974Z,9.47
2019-01-04T08:28:32.381Z,8.60
2019-01-04T08:31:08.708Z,7.60
2019-01-04T08:33:43.384Z,6.80
2019-01-04T08:36:13.590Z,8.53
2019-01-04T08:38:48.665Z,11.57
2019-01-04T08:41:20.084Z,10.40
2019-01-04T08:43:50.511Z,7.53
2019-01-04T08:46:24.041Z,10.73
2019-01-04T08:48:55.147Z,10.53
2019-01-04T08:51:28.102Z,14.93
2019-01-04T08:54:10.307Z,8.53
2019-01-04T08:56:40.729Z,7.33
2019-01-04T08:59:12.043Z,7.07
2019-01-04T09:01:42.855Z,4.23
2019-01-04T09:04:15.697Z,7.97
2019-01-04T09:06:46.446Z,6.57
2019-01-04T09:09:22.389Z,9.43
2019-01-04T09:11:55.932Z,11.03
2019-01-04T09:14:26.138Z,6.50
2019-01-04T09:16:56.503Z,3.43
2019-01-04T09:19:26.879Z,6.03
2019-01-04T09:21:59.520Z,6.43
2019-01-04T09:24:31.455Z,5.30
2019-01-04T09:27:02.116Z,11.60
2019-01-04T09:29:34.508Z,10.80
2019-01-04T09:32:06.191Z,8.13
2019-01-04T09:34:36.346Z,9.30
2019-01-04T09:37:06.541Z,5.60
2019-01-04T09:39:37.043Z,8.63
2019-01-04T09:42:15.547Z,6.53
2019-01-04T09:44:47.980Z,5.53
2019-01-04T09:47:21.311Z,6.53
2019-01-04T09:49:54.506Z,5.10
2019-01-04T09:52:29.441Z,4.80
2019-01-04T09:55:02.444Z,4.87
2019-01-04T09:57:35.661Z,3.30
2019-01-04T10:00:08.493Z,7.60
2019-01-04T10:02:38.808Z,7.90
2019-01-04T10:05:12.486Z,5.53
2019-01-04T10:07:42.864Z,8.73
2019-01-04T10:10:14.009Z,6.40
2019-01-04T10:12:44.670Z,7.90
2019-01-04T10:15:21.212Z,5.10
2019-01-04T10:17:51.975Z,5.70
2019-01-04T10:20:22.257Z,5.80
2019-01-04T10:22:53.605Z,5.27
2019-01-04T10:25:24.474Z,4.30
2019-01-04T10:27:58.151Z,4.30
2019-01-04T10:30:31.222Z,5.97
2019-01-04T10:33:04.562Z,7.23
2019-01-04T10:35:40.665Z,10.13
2019-01-04T10:38:12.859Z,6.47
2019-01-04T10:40:49.534Z,9.30
2019-01-04T10:43:23.747Z,11.73
2019-01-04T10:45:55.655Z,7.97
2019-01-04T10:48:26.462Z,7.20
2019-01-04T10:50:57.350Z,7.07
2019-01-04T10:53:30.767Z,8.10
2019-01-04T10:56:05.005Z,8.27
2019-01-04T10:58:35.261Z,7.97
2019-01-04T11:01:08.467Z,6.57
2019-01-04T11:03:38.782Z,6.33
2019-01-04T11:06:09.586Z,11.63
2019-01-04T11:08:44.300Z,6.37
2019-01-04T11:11:14.514Z,6.30
2019-01-04T11:13:48.934Z,6.93
2019-01-04T11:16:21.722Z,6.73
2019-01-04T11:18:55.153Z,7.97
2019-01-04T11:21:27.269Z,6.83
2019-01-04T11:24:31.647Z,7.50
2019-01-04T11:27:04.659Z,5.23
2019-01-04T11:30:19.944Z,10.00
2019-01-04T11:33:00.219Z,15.37
2019-01-04T11:35:57.544Z,10.40
2019-01-04T11:39:01.897Z,7.60
2019-01-04T11:42:15.925Z,12.67
2019-01-04T11:45:09.123Z,16.83
2019-01-04T11:48:19.792Z,10.70
2019-01-04T11:51:19.349Z,12.40
2019-01-04T11:53:50.491Z,20.80
2019-01-04T11:56:21.004Z,13.10
2019-01-04T11:58:56.346Z,13.40
2019-01-04T12:01:32.297Z,15.37
2019-01-04T12:04:02.979Z,13.47
2019-01-04T12:06:33.315Z,10.23
2019-01-04T12:09:06.039Z,16.77
2019-01-04T12:11:38.735Z,12.73
2019-01-04T12:14:10.330Z,18.10
2019-01-04T12:16:42.513Z,13.80
2019-01-04T12:19:13.990Z,13.87
2019-01-04T12:21:44.385Z,16.40
2019-01-04T12:24:16.914Z,10.50
2019-01-04T12:26:47.769Z,11.97
2019-01-04T12:29:17.918Z,18.80
2019-01-04T12:31:49.801Z,13.80
2019-01-04T12:34:20.462Z,13.80
2019-01-04T12:36:53.315Z,19.40
2019-01-04T12:39:26.250Z,17.57
2019-01-04T12:41:58.785Z,16.63
2019-01-04T12:44:31.929Z,12.50
2019-01-04T12:47:02.999Z,18.30
2019-01-04T12:49:33.913Z,27.17
2019-01-04T12:52:04.831Z,16.40
2019-01-04T12:54:37.186Z,15.43
2019-01-04T12:57:12.581Z,12.73
2019-01-04T12:59:43.262Z,18.67
2019-01-04T13:02:23.281Z,13.40
2019-01-04T13:04:58.762Z,14.40
2019-01-04T13:07:36.385Z,19.47
2019-01-04T13:10:11.479Z,11.90
2019-01-04T13:12:45.415Z,13.40
2019-01-04T13:15:18.291Z,14.57
2019-01-04T13:17:50.791Z,14.97
2019-01-04T13:20:21.600Z,18.30
2019-01-04T13:22:59.218Z,14.33
2019-01-04T13:25:33.347Z,20.57
2019-01-04T13:28:09.127Z,18.53
2019-01-04T13:30:44.007Z,16.20
2019-01-04T13:33:14.333Z,15.07
2019-01-04T13:35:50.726Z,13.87
2019-01-04T13:38:21.897Z,15.83
2019-01-04T13:40:54.379Z,14.83
2019-01-04T13:43:30.762Z,15.67
2019-01-04T13:46:09.684Z,17.60
2019-01-04T13:49:09.363Z,17.50
2019-01-04T13:51:47.864Z,15.00
2019-01-04T13:54:18.592Z,14.30
2019-01-04T13:56:50.010Z,22.60
2019-01-04T13:59:22.630Z,21.97
2019-01-04T14:01:58.327Z,22.83
2019-01-04T14:04:31.853Z,19.30
2019-01-04T14:07:05.319Z,19.20
2019-01-04T14:09:38.369Z,17.43
2019-01-04T14:24:48.148Z,17.00
2019-01-04T14:27:20.667Z,17.00
2019-01-04T14:29:50.869Z,18.90
2019-01-04T14:32:29.102Z,15.73
2019-01-04T14:34:59.686Z,22.03
2019-01-04T14:37:36.008Z,18.83
2019-01-04T14:40:06.637Z,14.77
2019-01-04T14:42:40.158Z,16.80
2019-01-04T14:45:29.589Z,19.53
2019-01-04T14:48:00.344Z,20.23
2019-01-04T14:50:35.449Z,14.93
2019-01-04T14:53:06.978Z,18.50
2019-01-04T14:55:38.723Z,17.13
2019-01-04T14:58:13.016Z,21.20
2019-01-04T15:00:43.493Z,22.60
2019-01-04T15:03:16.683Z,15.07
2019-01-04T15:05:50.597Z,18.73
2019-01-04T15:08:21.338Z,22.87
2019-01-04T15:10:54.526Z,22.97
2019-01-04T15:13:28.994Z,20.97
2019-01-04T15:16:04.398Z,18.47
2019-01-04T15:18:34.858Z,15.10
2019-01-04T15:21:14.726Z,18.13
2019-01-04T15:23:45.565Z,18.37
2019-01-04T15:26:18.142Z,18.07
2019-01-04T15:28:48.505Z,14.67
2019-01-04T15:31:21.597Z,18.53
2019-01-04T15:33:57.321Z,17.83
2019-01-04T15:36:27.977Z,16.30
2019-01-04T15:39:02.164Z,18.70
2019-01-04T15:41:33.969Z,21.50
2019-01-04T15:44:04.414Z,19.77
2019-01-04T15:46:46.039Z,18.30
2019-01-04T15:49:18.765Z,17.57
2019-01-04T15:51:55.291Z,20.17
2019-01-04T15:54:28.919Z,29.53
2019-01-04T15:56:59.602Z,20.33
2019-01-04T15:59:31.269Z,15.33
2019-01-04T16:02:10.143Z,27.90
2019-01-04T16:04:43.432Z,19.43
2019-01-04T16:07:35.235Z,29.63
2019-01-04T16:09:51.599Z,21.87
2019-01-04T16:12:22.071Z,18.90
2019-01-04T16:14:54.173Z,15.50
2019-01-04T16:17:24.798Z,21.40
2019-01-04T16:19:56.386Z,21.13
2019-01-04T16:25:03.798Z,17.97
2019-01-04T16:27:39.042Z,18.33
2019-01-04T16:30:13.455Z,14.37
2019-01-04T16:32:43.871Z,20.27
2019-01-04T16:35:15.376Z,20.63
2019-01-04T16:37:48.378Z,19.20
2019-01-04T16:40:18.994Z,18.40
2019-01-04T16:42:50.835Z,20.40
2019-01-04T16:45:21.455Z,18.20
2019-01-04T16:47:51.645Z,20.50
2019-01-04T16:50:21.958Z,17.70
2019-01-04T16:52:52.693Z,25.67
2019-01-04T16:55:23.545Z,20.90
2019-01-04T16:57:54.797Z,21.17
2019-01-04T17:00:34.436Z,18.77
2019-01-04T17:03:08.597Z,19.53
2019-01-04T17:05:39.161Z,22.17
2019-01-04T17:08:15.298Z,25.60
2019-01-04T17:10:47.134Z,20.93
2019-01-04T17:13:18.746Z,21.20
2019-01-04T17:15:49.351Z,24.73
2019-01-04T17:18:21.594Z,21.90
2019-01-04T17:20:52.366Z,24.37
2019-01-04T17:23:26.139Z,20.60
2019-01-04T17:25:56.459Z,29.67
2019-01-04T17:28:26.764Z,31.90
2019-01-04T17:30:58.198Z,20.53
2019-01-04T17:33:29.956Z,21.50
2019-01-04T17:36:00.387Z,26.57
2019-01-04T17:38:33.514Z,26.67
2019-01-04T17:41:03.985Z,21.10
2019-01-04T17:43:34.435Z,18.10
2019-01-04T17:46:05.267Z,23.10
2019-01-04T17:48:35.914Z,19.27
2019-01-04T17:51:08.850Z,19.30
2019-01-04T17:53:42.618Z,21.73
2019-01-04T17:56:12.768Z,17.57
2019-01-04T17:58:43.099Z,23.40
2019-01-04T18:01:14.361Z,15.83
2019-01-04T18:03:47.950Z,23.17
2019-01-04T18:06:20.279Z,18.10
2019-01-04T18:08:54.945Z,16.70
2019-01-04T18:11:26.905Z,18.50
2019-01-04T18:13:58.084Z,23.37
2019-01-04T18:16:28.885Z,16.17
2019-01-04T18:18:59.410Z,21.83
2019-01-04T18:21:30.781Z,19.40
2019-01-04T18:24:02.116Z,14.17
2019-01-04T18:26:35.761Z,20.37
2019-01-04T18:29:07.782Z,22.53
2019-01-04T18:31:39.645Z,24.40
2019-01-04T18:34:12.236Z,18.93
2019-01-04T18:36:43.038Z,14.30
2019-01-04T18:39:16.073Z,16.00
2019-01-04T18:41:49.343Z,19.70
2019-01-04T18:44:23.425Z,18.70
2019-01-04T18:46:53.778Z,14.73
2019-01-04T18:49:24.013Z,29.33
2019-01-04T18:51:54.615Z,18.47
2019-01-04T18:54:24.954Z,19.73
2019-01-04T18:56:55.302Z,17.27
2019-01-04T18:59:25.721Z,15.60
2019-01-04T19:02:01.222Z,18.80
2019-01-04T19:04:41.716Z,13.17
2019-01-04T19:07:14.619Z,22.33
2019-01-04T19:09:46.312Z,17.63
2019-01-04T19:12:17.473Z,18.53
2019-01-04T19:14:47.809Z,17.57
2019-01-04T19:17:41.155Z,15.83
2019-01-04T19:20:13.383Z,18.00
2019-01-04T19:22:47.566Z,18.33
2019-01-04T19:25:17.919Z,20.07
2019-01-04T19:27:48.370Z,17.30
2019-01-04T19:30:21.866Z,17.57
2019-01-04T19:32:52.449Z,19.80
2019-01-04T19:35:22.837Z,17.03
2019-01-04T19:37:53.215Z,17.80
2019-01-04T19:40:24.885Z,19.93
2019-01-04T19:42:57.911Z,19.13
2019-01-04T19:45:34.914Z,17.47
2019-01-04T19:48:05.490Z,17.10
2019-01-04T19:50:38.590Z,20.73
2019-01-04T19:53:08.695Z,13.60
2019-01-04T19:55:42.035Z,17.60
2019-01-04T19:58:15.706Z,17.73
2019-01-04T20:00:46.010Z,13.70
2019-01-04T20:03:18.002Z,18.10
2019-01-04T20:07:02.509Z,14.43
2019-01-04T20:10:30.896Z,16.87
2019-01-04T20:14:04.953Z,19.67
2019-01-04T20:16:56.948Z,18.20
2019-01-04T20:19:50.831Z,14.97
2019-01-04T20:22:58.425Z,19.67
2019-01-04T20:25:49.639Z,12.80
2019-01-04T20:28:37.918Z,16.70
2019-01-04T20:31:40.675Z,18.37
2019-01-04T20:34:38.849Z,13.13
2019-01-04T20:37:29.069Z,13.17
2019-01-04T20:40:19.958Z,13.00
2019-01-04T20:43:24.696Z,18.40
2019-01-04T20:46:32.291Z,16.30
2019-01-04T20:49:27.122Z,13.27
2019-01-04T20:52:32.948Z,14.97
2019-01-04T20:55:22.424Z,13.23
2019-01-04T20:58:10.154Z,13.40
2019-01-04T21:01:15.020Z,15.47
2019-01-04T21:04:03.555Z,14.30
2019-01-04T21:06:52.229Z,15.17
2019-01-04T21:09:44.540Z,11.60
2019-01-04T21:12:34.657Z,11.97
2019-01-04T21:15:27.003Z,11.87
2019-01-04T21:18:29.293Z,14.30
2019-01-04T21:21:21.426Z,12.43
2019-01-04T21:24:11.273Z,15.93
2019-01-04T21:26:59.518Z,19.67
2019-01-04T21:30:01.080Z,13.40
2019-01-04T21:32:53.729Z,20.07
2019-01-04T21:35:46.379Z,16.50
2019-01-04T21:38:34.315Z,13.10
2019-01-04T21:41:32.020Z,13.70
2019-01-04T21:44:27.038Z,26.53
2019-01-04T21:47:20.045Z,20.97
2019-01-04T21:50:15.151Z,22.00
2019-01-04T21:53:06.206Z,15.57
2019-01-04T21:56:06.117Z,17.70
2019-01-04T21:58:55.656Z,21.53
2019-01-04T22:01:44.135Z,18.20
2019-01-04T22:04:45.710Z,26.70
2019-01-04T22:07:48.743Z,22.13
2019-01-04T22:10:49.945Z,12.20
2019-01-04T22:13:47.490Z,21.10
2019-01-04T22:16:36.137Z,12.83
2019-01-04T22:19:40.870Z,15.03
2019-01-04T22:22:32.697Z,13.83
2019-01-04T22:25:30.886Z,11.50
2019-01-04T22:28:27.033Z,9.20
2019-01-04T22:31:27.849Z,17.60
2019-01-04T22:34:19.424Z,15.63
2019-01-04T22:37:27.294Z,13.97
2019-01-04T22:40:17.891Z,13.17
2019-01-04T22:43:06.241Z,15.23
2019-01-04T22:46:04.446Z,18.20
2019-01-04T22:49:05.032Z,9.80
2019-01-04T22:51:57.495Z,8.90
2019-01-04T22:54:58.952Z,9.60
2019-01-04T22:57:46.981Z,12.40
2019-01-04T23:00:48.138Z,12.13
2019-01-04T23:03:41.004Z,9.53
2019-01-04T23:06:36.200Z,10.67
2019-01-04T23:09:28.760Z,10.67
2019-01-04T23:12:19.565Z,8.87
2019-01-04T23:15:22.043Z,10.77
2019-01-04T23:18:12.030Z,11.07
2019-01-04T23:21:00.582Z,11.80
2019-01-04T23:23:49.954Z,9.40
2019-01-04T23:26:40.556Z,8.77
2019-01-04T23:29:31.664Z,10.17
2019-01-04T23:32:17.223Z,12.33
2019-01-04T23:35:21.572Z,10.10
2019-01-04T23:38:12.380Z,8.50
2019-01-04T23:41:02.159Z,12.80
2019-01-04T23:44:08.734Z,10.90
2019-01-04T23:47:03.231Z,14.00
2019-01-04T23:50:09.581Z,16.13
2019-01-04T23:52:57.535Z,10.60
2019-01-04T23:56:01.474Z,9.40
2019-01-04T23:58:57.265Z,11.90
